Time;durP1;ratioP1;P1;durP2;ratioP2;P2;SDS_P1;SDS_P2;PMS_P1;PMS_P2;Temp;Humidity;BMP_temperature;BMP_pressure;BME280_temperature;BME280_humidity;BME280_pressure;Samples;Min_cycle;Max_cycle;Signal;HPM_P1;HPM_P2
2023/05/19 00:01:15;;;;;;;20.10;5.60;;;7.80;99.90;;;;;;5116180;28;20527;-72
2023/05/19 00:04:00;;;;;;;21.58;7.00;;;7.80;99.90;;;;;;5098087;28;20055;-73
2023/05/19 00:06:30;;;;;;;23.08;6.68;;;7.80;99.90;;;;;;5114686;28;20122;-72
2023/05/19 00:08:58;;;;;;;30.10;6.85;;;7.80;99.90;;;;;;5097459;28;20528;-72
2023/05/19 00:11:25;;;;;;;29.45;6.93;;;7.70;99.90;;;;;;5116425;28;20044;-72
2023/05/19 00:13:54;;;;;;;;;;;7.70;99.90;;;;;;5116220;28;20047;-70
2023/05/19 00:16:21;;;;;;;19.88;5.97;;;7.70;99.90;;;;;;5114800;28;19920;-72
2023/05/19 00:18:47;;;;;;;27.40;6.50;;;7.60;99.90;;;;;;5114294;28;20079;-72
2023/05/19 00:21:14;;;;;;;32.00;6.53;;;7.60;99.90;;;;;;5114201;28;20488;-72
2023/05/19 00:23:39;;;;;;;25.98;6.85;;;7.60;99.90;;;;;;5115567;28;20079;-71
2023/05/19 00:26:05;;;;;;;32.70;6.63;;;7.60;99.90;;;;;;5097112;28;20083;-72
2023/05/19 00:28:31;;;;;;;25.17;6.70;;;7.60;99.90;;;;;;5115782;28;20090;-72
2023/05/19 00:30:57;;;;;;;34.65;7.43;;;7.50;99.90;;;;;;5097407;28;20039;-71
2023/05/19 00:33:22;;;;;;;27.40;6.90;;;7.60;99.90;;;;;;5114201;28;20074;-72
2023/05/19 00:35:48;;;;;;;28.90;6.75;;;7.50;99.90;;;;;;5115145;28;20047;-71
2023/05/19 00:38:14;;;;;;;25.77;6.72;;;7.50;99.90;;;;;;5098019;28;20047;-71
2023/05/19 00:40:40;;;;;;;23.25;6.47;;;7.50;99.90;;;;;;5063835;28;20059;-71
2023/05/19 00:43:07;;;;;;;23.45;6.85;;;7.50;99.90;;;;;;5113798;28;20089;-70
2023/05/19 00:45:33;;;;;;;33.10;7.90;;;7.50;99.90;;;;;;5114934;28;20043;-71
2023/05/19 00:47:59;;;;;;;25.80;7.50;;;7.50;99.90;;;;;;5096973;28;20040;-72
2023/05/19 00:50:27;;;;;;;26.67;7.70;;;7.50;99.90;;;;;;5125834;27;20059;-71
2023/05/19 00:52:54;;;;;;;31.05;7.30;;;7.40;99.90;;;;;;5117239;27;20100;-73
2023/05/19 00:55:28;;;;;;;25.80;7.40;;;7.50;99.90;;;;;;5117157;27;20035;-72
2023/05/19 00:57:55;;;;;;;26.67;6.95;;;7.40;99.90;;;;;;5135546;27;20108;-73
2023/05/19 01:00:21;;;;;;;28.95;7.88;;;7.40;99.90;;;;;;5135218;27;20103;-72
2023/05/19 01:02:49;;;;;;;26.20;7.03;;;7.40;99.90;;;;;;5117096;27;20047;-73
2023/05/19 01:05:15;;;;;;;;;;;7.30;99.90;;;;;;5117441;27;20100;-71
2023/05/19 01:07:41;;;;;;;32.92;6.85;;;7.30;99.90;;;;;;5135152;27;19923;-71
2023/05/19 01:10:08;;;;;;;34.40;9.27;;;7.30;99.90;;;;;;5117169;27;20047;-72
2023/05/19 01:12:35;;;;;;;31.48;7.65;;;7.20;99.90;;;;;;5116760;27;20047;-72
2023/05/19 01:15:04;;;;;;;28.58;7.72;;;7.30;99.90;;;;;;5134724;27;20123;-70
2023/05/19 01:17:59;;;;;;;32.15;8.38;;;7.20;99.90;;;;;;5100990;27;20082;-71
2023/05/19 01:20:38;;;;;;;29.95;8.60;;;7.20;99.90;;;;;;5116689;27;20104;-71
2023/05/19 01:23:16;;;;;;;33.63;7.07;;;7.20;99.90;;;;;;5116625;27;20043;-71
2023/05/19 01:25:42;;;;;;;29.90;8.38;;;7.20;99.90;;;;;;5116402;27;20051;-72
2023/05/19 01:28:14;;;;;;;34.83;7.63;;;7.10;99.90;;;;;;5134811;27;20035;-70
2023/05/19 01:30:42;;;;;;;35.70;8.73;;;7.10;99.90;;;;;;5099451;27;20134;-71
2023/05/19 01:33:13;;;;;;;30.95;9.23;;;7.10;99.90;;;;;;5099371;27;20047;-71
2023/05/19 01:35:40;;;;;;;39.38;8.95;;;7.10;99.90;;;;;;5134608;27;20093;-72
2023/05/19 01:38:08;;;;;;;43.22;9.68;;;7.10;99.90;;;;;;5099509;27;20039;-72
2023/05/19 01:40:34;;;;;;;36.53;8.63;;;7.00;99.90;;;;;;5099432;27;20054;-71
2023/05/19 01:43:01;;;;;;;35.95;8.48;;;6.90;99.90;;;;;;5099557;27;20053;-73
2023/05/19 01:45:28;;;;;;;32.72;9.27;;;6.90;99.90;;;;;;5116265;27;20138;-72
2023/05/19 01:47:57;;;;;;;34.30;8.18;;;6.90;99.90;;;;;;5134823;27;20388;-72
2023/05/19 01:50:23;;;;;;;30.83;8.75;;;6.90;99.90;;;;;;5112592;28;20148;-73
2023/05/19 01:52:50;;;;;;;43.40;9.50;;;6.90;99.90;;;;;;5112965;28;20074;-73
2023/05/19 01:55:17;;;;;;;41.38;10.60;;;7.00;99.90;;;;;;5112384;28;20504;-71
2023/05/19 01:57:59;;;;;;;32.50;8.10;;;7.00;99.90;;;;;;5096685;28;20043;-73
2023/05/19 02:00:52;;;;;;;46.90;10.68;;;7.00;99.90;;;;;;5113612;28;20047;-80
2023/05/19 02:04:12;;;;;;;39.83;9.38;;;7.00;99.90;;;;;;5095510;28;20035;-71
2023/05/19 02:06:55;;;;;;;35.22;9.77;;;7.00;99.90;;;;;;5050862;28;20088;-70
2023/05/19 02:09:26;;;;;;;37.33;9.32;;;7.00;99.90;;;;;;5113552;28;20485;-72
2023/05/19 02:12:01;;;;;;;38.97;9.25;;;6.90;99.90;;;;;;5095732;28;20055;-72
2023/05/19 02:14:38;;;;;;;37.33;8.63;;;6.90;99.90;;;;;;5113776;28;20052;-72
2023/05/19 02:17:05;;;;;;;37.88;9.15;;;6.90;99.90;;;;;;5112763;28;20083;-72
2023/05/19 02:19:34;;;;;;;40.80;10.17;;;6.90;99.90;;;;;;5096181;28;20474;-70
2023/05/19 02:21:59;;;;;;;31.83;9.07;;;6.90;99.90;;;;;;5095348;28;20286;-71
2023/05/19 02:24:25;;;;;;;38.92;11.05;;;6.90;99.90;;;;;;5113693;28;20062;-72
2023/05/19 02:26:52;;;;;;;38.50;9.57;;;6.90;99.90;;;;;;5115348;28;20040;-71
2023/05/19 02:29:19;;;;;;;44.53;10.18;;;7.00;99.90;;;;;;5116554;28;20040;-72
2023/05/19 02:31:45;;;;;;;43.05;8.93;;;6.90;99.90;;;;;;5116356;28;20054;-71
2023/05/19 02:34:11;;;;;;;40.83;8.45;;;6.90;99.90;;;;;;5118718;28;20035;-70
2023/05/19 02:36:41;;;;;;;40.20;9.98;;;6.80;99.90;;;;;;5117468;28;20047;-70
2023/05/19 02:39:08;;;;;;;36.28;8.50;;;6.80;99.90;;;;;;5118016;28;20043;-71
2023/05/19 02:41:34;;;;;;;37.90;9.13;;;6.80;99.90;;;;;;5117355;28;20405;-72
2023/05/19 02:44:00;;;;;;;37.67;9.60;;;6.80;99.90;;;;;;5117460;28;20047;-72
2023/05/19 02:46:25;;;;;;;35.97;8.18;;;6.80;99.90;;;;;;5117072;28;20221;-70
2023/05/19 02:48:52;;;;;;;39.15;9.13;;;6.80;99.90;;;;;;5099242;28;20102;-72
2023/05/19 02:51:17;;;;;;;43.57;8.53;;;6.80;99.90;;;;;;5098936;28;20420;-71
2023/05/19 02:53:43;;;;;;;39.60;9.15;;;6.70;99.90;;;;;;5099465;28;20292;-70
2023/05/19 02:56:09;;;;;;;35.90;8.55;;;6.70;99.90;;;;;;5083057;28;20477;-71
2023/05/19 02:58:35;;;;;;;31.42;8.80;;;6.60;99.90;;;;;;5098964;28;20050;-72
2023/05/19 03:01:01;;;;;;;34.05;8.88;;;6.60;99.90;;;;;;5117006;28;20130;-71
2023/05/19 03:03:27;;;;;;;31.77;7.93;;;6.70;99.90;;;;;;5099116;28;20048;-71
2023/05/19 03:05:53;;;;;;;32.78;8.30;;;6.60;99.90;;;;;;5116981;28;20056;-71
2023/05/19 03:08:19;;;;;;;36.75;9.55;;;6.60;99.90;;;;;;5115724;28;20055;-73
2023/05/19 03:10:45;;;;;;;33.47;8.90;;;6.60;99.90;;;;;;5116377;28;20036;-72
2023/05/19 03:13:11;;;;;;;43.53;8.80;;;6.60;99.90;;;;;;5115948;28;20396;-70
2023/05/19 03:15:37;;;;;;;33.60;8.00;;;6.50;99.90;;;;;;5099034;28;20127;-71
2023/05/19 03:18:04;;;;;;;38.20;9.68;;;6.50;99.90;;;;;;5116551;28;20047;-72
2023/05/19 03:20:29;;;;;;;32.90;7.93;;;6.50;99.90;;;;;;5116452;28;20489;-71
2023/05/19 03:22:56;;;;;;;26.38;8.02;;;6.50;99.90;;;;;;5116537;28;20102;-71
2023/05/19 03:25:22;;;;;;;24.92;7.18;;;6.40;99.90;;;;;;5115373;28;20561;-72
2023/05/19 03:27:48;;;;;;;41.78;9.88;;;6.40;99.90;;;;;;5081900;28;20085;-71
2023/05/19 03:30:14;;;;;;;32.30;8.98;;;6.40;99.90;;;;;;5098832;28;20059;-72
2023/05/19 03:32:40;;;;;;;25.60;7.80;;;6.40;99.90;;;;;;5116321;28;20047;-72
2023/05/19 03:35:06;;;;;;;30.15;9.65;;;6.30;99.90;;;;;;5115216;28;20047;-72
2023/05/19 03:37:32;;;;;;;30.75;8.60;;;6.30;99.90;;;;;;5114851;28;20047;-72
2023/05/19 03:39:58;;;;;;;35.03;8.80;;;6.30;99.90;;;;;;5113721;28;20092;-71
2023/05/19 03:42:24;;;;;;;36.03;9.13;;;6.30;99.90;;;;;;5116095;28;20492;-72
2023/05/19 03:44:50;;;;;;;31.25;8.68;;;6.30;99.90;;;;;;5098178;28;20047;-72
2023/05/19 03:47:16;;;;;;;38.03;8.27;;;6.40;99.90;;;;;;5098226;28;20054;-71
2023/05/19 03:49:42;;;;;;;31.45;9.10;;;6.30;99.90;;;;;;5117869;27;20055;-71
2023/05/19 03:52:08;;;;;;;27.95;8.13;;;6.30;99.90;;;;;;5136931;27;20089;-72
2023/05/19 03:54:34;;;;;;;34.00;8.52;;;6.30;99.90;;;;;;5101569;27;20054;-71
2023/05/19 03:57:01;;;;;;;33.60;8.20;;;6.30;99.90;;;;;;5118154;27;20047;-72
2023/05/19 03:59:27;;;;;;;35.88;8.73;;;6.40;99.90;;;;;;5136427;27;20083;-72
2023/05/19 04:01:53;;;;;;;35.05;8.18;;;6.40;99.90;;;;;;5118134;27;20050;-72
2023/05/19 04:04:20;;;;;;;31.73;8.93;;;6.30;99.90;;;;;;5118850;27;20078;-72
2023/05/19 04:06:47;;;;;;;40.08;9.27;;;6.40;99.90;;;;;;5118193;27;20050;-73
2023/05/19 04:09:14;;;;;;;37.03;8.35;;;6.50;99.90;;;;;;5084358;27;20047;-72
2023/05/19 04:11:41;;;;;;;37.45;8.38;;;6.50;99.90;;;;;;5135849;27;20051;-71
2023/05/19 04:14:07;;;;;;;36.20;8.63;;;6.50;99.90;;;;;;5101363;27;20088;-71
2023/05/19 04:16:33;;;;;;;36.78;9.55;;;6.60;99.90;;;;;;5118099;27;20051;-73
2023/05/19 04:18:59;;;;;;;30.20;8.95;;;6.60;99.90;;;;;;5100680;27;20045;-72
2023/05/19 04:21:26;;;;;;;35.10;8.85;;;6.70;99.90;;;;;;5100751;27;20055;-71
2023/05/19 04:23:52;;;;;;;35.80;8.85;;;6.70;99.90;;;;;;5135953;27;20058;-71
2023/05/19 04:26:20;;;;;;;31.05;8.70;;;6.80;99.90;;;;;;5100842;27;20476;-71
2023/05/19 04:28:47;;;;;;;32.72;7.85;;;6.80;99.90;;;;;;5084207;27;20051;-71
2023/05/19 04:31:15;;;;;;;35.22;9.10;;;6.80;99.90;;;;;;5135463;27;20043;-71
2023/05/19 04:33:40;;;;;;;34.95;7.95;;;6.80;99.90;;;;;;5083607;27;20058;-71
2023/05/19 04:36:09;;;;;;;32.65;8.82;;;6.90;99.90;;;;;;5100443;27;20047;-72
2023/05/19 04:38:36;;;;;;;31.92;8.38;;;7.00;99.90;;;;;;5118313;27;20040;-71
2023/05/19 04:41:09;;;;;;;37.40;8.65;;;7.10;99.90;;;;;;5117284;27;20051;-73
2023/05/19 04:43:35;;;;;;;30.15;8.75;;;7.10;99.90;;;;;;5101509;27;20043;-72
2023/05/19 04:46:05;;;;;;;34.73;8.17;;;7.20;99.90;;;;;;5100355;27;20070;-72
2023/05/19 04:48:32;;;;;;;31.52;8.43;;;7.20;99.90;;;;;;5117797;27;20305;-71
2023/05/19 04:51:00;;;;;;;;;;;7.40;99.90;;;;;;5135898;27;20470;-72
2023/05/19 04:53:30;;;;;;;26.23;7.78;;;7.40;99.90;;;;;;5135359;27;20118;-72
2023/05/19 04:55:57;;;;;;;24.75;7.32;;;7.50;99.90;;;;;;5135991;27;20507;-73
2023/05/19 04:58:24;;;;;;;30.23;7.47;;;7.60;99.90;;;;;;5135280;27;20047;-72
2023/05/19 05:00:51;;;;;;;28.73;7.70;;;7.60;99.90;;;;;;5135221;27;20130;-75
2023/05/19 05:03:17;;;;;;;25.83;7.13;;;7.70;99.90;;;;;;5101034;27;20376;-72
2023/05/19 05:05:43;;;;;;;25.98;7.90;;;7.80;99.90;;;;;;5117148;27;20100;-72
2023/05/19 05:08:14;;;;;;;24.60;7.95;;;7.80;99.90;;;;;;5099877;27;20043;-72
2023/05/19 05:10:40;;;;;;;26.50;7.95;;;7.90;99.90;;;;;;5100302;27;20047;-71
2023/05/19 05:13:06;;;;;;;27.58;8.10;;;8.00;99.90;;;;;;5117004;27;20100;-72
2023/05/19 05:15:32;;;;;;;20.30;7.25;;;8.00;99.90;;;;;;5117422;27;20047;-72
2023/05/19 05:17:58;;;;;;;20.77;7.60;;;8.10;99.90;;;;;;5116609;27;20043;-72
2023/05/19 05:20:24;;;;;;;22.15;9.07;;;8.20;99.90;;;;;;5134851;27;20043;-73
2023/05/19 05:22:50;;;;;;;21.58;8.43;;;8.20;99.90;;;;;;5117036;27;20047;-70
2023/05/19 05:25:16;;;;;;;26.45;8.13;;;8.30;99.90;;;;;;5134516;27;20561;-71
2023/05/19 05:27:42;;;;;;;25.42;7.63;;;8.30;99.90;;;;;;5116562;27;20043;-72
2023/05/19 05:30:08;;;;;;;24.65;8.02;;;8.40;99.90;;;;;;5099788;27;20103;-71
2023/05/19 05:32:34;;;;;;;26.73;7.93;;;8.50;99.90;;;;;;5116384;27;20050;-72
2023/05/19 05:35:00;;;;;;;18.73;7.10;;;8.60;99.90;;;;;;5099591;27;20058;-71
2023/05/19 05:37:26;;;;;;;22.63;7.82;;;8.70;99.90;;;;;;5099467;27;20468;-72
2023/05/19 05:39:51;;;;;;;22.02;7.13;;;8.80;99.90;;;;;;5116437;27;20375;-71
2023/05/19 05:42:17;;;;;;;24.55;7.22;;;8.80;99.90;;;;;;5100037;27;20047;-72
2023/05/19 05:44:43;;;;;;;18.50;6.88;;;8.90;99.90;;;;;;5134345;27;20449;-73
2023/05/19 05:47:10;;;;;;;20.27;6.88;;;9.00;99.90;;;;;;5065964;27;20104;-71
2023/05/19 05:49:37;;;;;;;24.92;7.38;;;9.10;99.90;;;;;;5116308;27;20400;-71
2023/05/19 05:52:03;;;;;;;18.93;7.10;;;9.10;99.90;;;;;;5134989;27;20086;-72
2023/05/19 05:54:29;;;;;;;16.40;6.38;;;9.20;99.90;;;;;;5099078;27;20047;-71
2023/05/19 05:56:55;;;;;;;18.92;6.18;;;9.20;99.90;;;;;;5117007;28;20084;-71
2023/05/19 05:59:21;;;;;;;16.30;6.40;;;9.30;99.90;;;;;;5133940;27;20092;-71
2023/05/19 06:01:47;;;;;;;18.73;6.20;;;9.40;99.90;;;;;;5134179;27;20055;-70
2023/05/19 06:04:13;;;;;;;23.55;6.95;;;9.40;99.90;;;;;;5116108;28;20042;-71
2023/05/19 06:06:38;;;;;;;17.23;6.38;;;9.50;99.90;;;;;;5115978;28;20054;-70
2023/05/19 06:09:04;;;;;;;14.90;5.95;;;9.60;99.90;;;;;;5116037;28;20582;-71
2023/05/19 06:11:30;;;;;;;15.57;6.03;;;9.70;99.90;;;;;;5098938;28;20133;-71
2023/05/19 06:13:56;;;;;;;23.13;6.18;;;9.80;99.90;;;;;;5134134;28;20070;-70
2023/05/19 06:16:21;;;;;;;17.15;5.50;;;9.80;99.90;;;;;;5115839;28;20399;-70
2023/05/19 06:18:47;;;;;;;16.02;6.55;;;9.90;99.90;;;;;;5134366;28;20035;-73
2023/05/19 06:21:13;;;;;;;13.57;6.50;;;9.90;99.90;;;;;;5134317;28;20070;-70
2023/05/19 06:23:42;;;;;;;16.92;6.18;;;10.00;99.90;;;;;;5099048;28;20121;-72
2023/05/19 06:26:08;;;;;;;22.55;7.72;;;10.10;99.90;;;;;;5115971;28;20047;-71
2023/05/19 06:28:34;;;;;;;18.88;5.57;;;10.30;99.90;;;;;;5115987;28;20043;-73
2023/05/19 06:31:00;;;;;;;17.20;6.05;;;10.30;99.90;;;;;;5134199;28;20130;-71
2023/05/19 06:33:25;;;;;;;15.63;5.90;;;10.40;99.90;;;;;;5134528;28;20055;-70
2023/05/19 06:35:51;;;;;;;16.25;5.70;;;10.50;99.90;;;;;;5115595;28;20068;-72
2023/05/19 06:38:17;;;;;;;12.93;4.95;;;10.60;99.90;;;;;;5115323;28;20043;-71
2023/05/19 06:40:43;;;;;;;25.35;7.28;;;10.70;99.90;;;;;;5133878;28;20051;-71
2023/05/19 06:43:09;;;;;;;15.75;6.38;;;10.80;99.90;;;;;;5134468;28;20039;-71
2023/05/19 06:45:34;;;;;;;17.95;5.65;;;10.80;99.90;;;;;;5133975;28;20142;-71
2023/05/19 06:48:00;;;;;;;15.98;5.93;;;11.00;99.90;;;;;;5115360;28;20396;-71
2023/05/19 06:50:26;;;;;;;13.23;5.32;;;11.10;99.90;;;;;;5095420;28;20103;-71
2023/05/19 06:52:52;;;;;;;13.60;5.78;;;11.20;99.90;;;;;;5112085;28;20130;-70
2023/05/19 06:55:18;;;;;;;14.38;4.97;;;11.20;99.90;;;;;;5114036;28;20102;-71
2023/05/19 06:57:44;;;;;;;13.80;5.10;;;11.30;99.90;;;;;;5113316;28;20388;-71
2023/05/19 07:00:11;;;;;;;14.00;4.95;;;11.40;99.90;;;;;;5112120;28;20122;-72
2023/05/19 07:02:40;;;;;;;15.35;4.85;;;11.50;99.90;;;;;;5111491;28;20055;-72
2023/05/19 07:05:07;;;;;;;11.90;4.70;;;11.60;99.90;;;;;;5113160;28;20051;-72
2023/05/19 07:07:33;;;;;;;11.93;4.63;;;11.80;99.90;;;;;;5094667;28;20040;-73
2023/05/19 07:09:58;;;;;;;17.65;4.68;;;11.80;99.90;;;;;;5113228;28;20043;-72
2023/05/19 07:12:25;;;;;;;16.33;5.00;;;12.00;99.90;;;;;;5112014;28;20047;-72
2023/05/19 07:14:51;;;;;;;12.38;3.90;;;12.00;99.90;;;;;;5115360;28;20493;-71
2023/05/19 07:17:17;;;;;;;9.60;3.55;;;12.10;99.90;;;;;;5098325;28;20043;-71
2023/05/19 07:19:43;;;;;;;10.45;4.25;;;12.20;99.90;;;;;;5116506;28;20042;-73
2023/05/19 07:22:09;;;;;;;14.38;3.80;;;12.40;99.90;;;;;;5115463;28;20373;-73
2023/05/19 07:24:34;;;;;;;13.98;4.78;;;12.40;99.90;;;;;;5116543;28;20047;-71
2023/05/19 07:27:00;;;;;;;10.43;4.20;;;12.50;99.90;;;;;;5116249;28;20392;-71
2023/05/19 07:29:26;;;;;;;13.05;4.35;;;12.60;99.90;;;;;;5116977;28;20051;-71
2023/05/19 07:31:56;;;;;;;12.98;3.53;;;12.70;99.90;;;;;;5116602;28;20429;-73
2023/05/19 07:34:22;;;;;;;10.00;3.58;;;12.80;99.90;;;;;;5115682;28;20043;-72
2023/05/19 07:36:48;;;;;;;12.35;3.50;;;12.90;99.90;;;;;;5115132;28;20081;-72
2023/05/19 07:39:14;;;;;;;12.02;4.07;;;13.00;99.90;;;;;;5116187;28;20083;-72
2023/05/19 07:41:40;;;;;;;10.18;3.13;;;13.10;99.90;;;;;;5116292;28;20559;-72
2023/05/19 07:44:06;;;;;;;12.65;3.30;;;13.20;99.90;;;;;;5098521;28;20104;-71
2023/05/19 07:46:36;;;;;;;12.20;3.80;;;13.20;99.90;;;;;;5116131;28;20043;-72
2023/05/19 07:49:02;;;;;;;12.52;3.08;;;13.40;99.90;;;;;;5114981;28;20044;-72
2023/05/19 07:51:28;;;;;;;10.85;2.78;;;13.50;99.90;;;;;;5114594;28;20051;-72
2023/05/19 07:53:54;;;;;;;14.43;3.08;;;13.60;99.90;;;;;;5115869;28;20166;-72
2023/05/19 07:56:20;;;;;;;6.50;2.58;;;13.70;99.90;;;;;;5114776;28;20058;-72
2023/05/19 07:58:46;;;;;;;9.55;2.90;;;13.80;99.90;;;;;;5097856;28;20051;-71
2023/05/19 08:01:12;;;;;;;8.18;2.80;;;13.90;99.90;;;;;;5098014;28;20052;-73
2023/05/19 08:03:37;;;;;;;9.90;2.60;;;13.90;99.90;;;;;;5115372;28;20472;-72
2023/05/19 08:06:03;;;;;;;9.50;3.10;;;14.00;99.90;;;;;;5097991;28;20048;-73
2023/05/19 08:08:29;;;;;;;9.98;2.90;;;14.10;99.90;;;;;;5114550;28;20050;-73
2023/05/19 08:10:55;;;;;;;13.27;2.63;;;14.20;99.90;;;;;;5115743;28;20374;-72
2023/05/19 08:13:20;;;;;;;12.02;2.50;;;14.30;99.90;;;;;;5097706;28;20047;-72
2023/05/19 08:15:46;;;;;;;7.88;2.45;;;14.40;99.90;;;;;;5114374;28;20075;-72
2023/05/19 08:18:12;;;;;;;9.52;2.30;;;14.60;99.90;;;;;;5115526;28;20039;-73
2023/05/19 08:20:38;;;;;;;11.93;2.70;;;14.60;99.90;;;;;;5115436;28;20140;-72
2023/05/19 08:23:04;;;;;;;9.27;2.25;;;14.70;99.90;;;;;;5114276;28;20126;-72
2023/05/19 08:25:30;;;;;;;8.43;2.45;;;14.90;99.90;;;;;;5114609;28;20051;-71
2023/05/19 08:27:55;;;;;;;10.80;2.60;;;15.00;99.90;;;;;;5097809;28;20046;-73
2023/05/19 08:30:21;;;;;;;11.02;2.80;;;15.00;99.90;;;;;;5114244;28;20126;-70
2023/05/19 08:32:47;;;;;;;8.10;2.40;;;15.00;99.90;;;;;;5114038;28;20099;-70
2023/05/19 08:35:13;;;;;;;10.07;2.30;;;14.90;99.90;;;;;;5115216;28;20047;-70
2023/05/19 08:37:38;;;;;;;8.00;2.60;;;15.10;99.90;;;;;;5115077;28;20075;-72
2023/05/19 08:40:05;;;;;;;8.73;2.17;;;15.10;99.90;;;;;;5114098;28;20473;-73
2023/05/19 08:42:32;;;;;;;;;;;15.30;99.90;;;;;;5115445;28;20409;-73
2023/05/19 08:45:00;;;;;;;7.47;1.88;;;15.30;99.90;;;;;;5114394;28;19927;-71
2023/05/19 08:47:27;;;;;;;12.05;2.28;;;15.50;99.90;;;;;;5114119;28;20197;-73
2023/05/19 08:49:57;;;;;;;8.40;1.90;;;;;;;;;;5119865;27;20490;-73
2023/05/19 08:52:48;;;;;;;10.63;2.10;;;15.50;99.90;;;;;;5118083;27;20047;-72
2023/05/19 08:55:32;;;;;;;9.35;2.05;;;15.60;99.90;;;;;;5135682;27;20047;-71
2023/05/19 08:58:00;;;;;;;11.88;2.53;;;15.60;99.90;;;;;;5134944;27;20476;-73
2023/05/19 09:00:27;;;;;;;8.25;2.33;;;15.70;99.90;;;;;;5116529;27;20134;-72
2023/05/19 09:02:53;;;;;;;10.55;2.28;;;15.70;99.90;;;;;;5100413;27;20047;-72
2023/05/19 09:05:20;;;;;;;9.77;2.30;;;;;;;;;;5100079;27;20135;-72
2023/05/19 09:07:47;;;;;;;11.85;1.80;;;15.90;99.90;;;;;;5135112;27;20051;-72
2023/05/19 09:10:14;;;;;;;;;;;15.90;99.60;;;;;;5117392;27;20039;-72
2023/05/19 09:12:45;;;;;;;8.95;1.83;;;15.70;98.70;;;;;;5116943;27;20045;-72
2023/05/19 09:15:12;;;;;;;9.70;2.47;;;15.80;97.50;;;;;;5117078;27;20384;-70
2023/05/19 09:17:38;;;;;;;9.32;2.28;;;15.80;98.10;;;;;;5116778;27;20057;-71
2023/05/19 09:20:11;;;;;;;9.37;2.47;;;15.80;98.90;;;;;;5116497;27;20093;-72
2023/05/19 09:22:46;;;;;;;9.32;2.45;;;15.90;99.40;;;;;;5116908;27;20626;-73
2023/05/19 09:25:27;;;;;;;11.52;2.40;;;16.00;98.10;;;;;;5134454;27;20492;-72
2023/05/19 09:27:54;;;;;;;9.20;1.95;;;16.20;97.70;;;;;;5116443;27;20388;-71
2023/05/19 09:30:20;;;;;;;;;;;16.30;98.70;;;;;;5117073;27;20089;-71
2023/05/19 09:32:46;;;;;;;7.47;1.92;;;16.10;96.50;;;;;;5135436;27;19923;-71
2023/05/19 09:35:12;;;;;;;7.00;1.80;;;16.30;97.80;;;;;;5116495;27;20133;-74
2023/05/19 09:37:42;;;;;;;8.23;2.20;;;16.30;98.30;;;;;;5133995;27;20078;-71
2023/05/19 09:40:09;;;;;;;10.75;2.00;;;16.40;97.80;;;;;;5099171;27;20122;-71
2023/05/19 09:42:39;;;;;;;9.80;1.95;;;16.40;97.70;;;;;;5100246;27;20031;-72
2023/05/19 09:45:06;;;;;;;10.00;2.25;;;16.40;97.70;;;;;;5116505;27;20039;-72
2023/05/19 09:47:34;;;;;;;6.75;1.80;;;16.50;98.30;;;;;;5134358;27;20039;-72
2023/05/19 09:50:00;;;;;;;7.50;1.60;;;16.60;98.10;;;;;;5134139;27;20051;-71
2023/05/19 09:52:26;;;;;;;7.47;2.28;;;16.60;98.00;;;;;;5116629;27;20396;-73
2023/05/19 09:54:53;;;;;;;9.43;1.98;;;16.50;95.40;;;;;;5116011;27;20456;-72
2023/05/19 09:57:25;;;;;;;10.05;1.80;;;16.40;95.40;;;;;;5099473;27;20126;-73
2023/05/19 09:59:53;;;;;;;7.57;2.15;;;16.60;96.90;;;;;;5099950;27;20043;-72
2023/05/19 10:02:20;;;;;;;6.88;1.77;;;16.60;96.90;;;;;;5099038;28;20082;-72
2023/05/19 10:04:47;;;;;;;8.30;1.55;;;16.60;96.30;;;;;;5115662;28;20488;-72
2023/05/19 10:07:14;;;;;;;9.63;2.17;;;16.60;96.00;;;;;;5135007;28;20104;-72
2023/05/19 10:09:41;;;;;;;5.95;1.80;;;16.50;94.20;;;;;;5115914;28;20438;-72
2023/05/19 10:12:09;;;;;;;6.88;1.80;;;16.60;95.60;;;;;;5134768;28;20067;-72
2023/05/19 10:14:36;;;;;;;10.50;1.92;;;16.90;96.40;;;;;;5134077;28;20046;-72
2023/05/19 10:17:03;;;;;;;7.70;1.60;;;16.80;94.10;;;;;;5134169;28;20071;-71
2023/05/19 10:19:29;;;;;;;10.38;2.17;;;17.00;95.60;;;;;;5134099;28;20031;-71
2023/05/19 10:21:55;;;;;;;9.37;2.00;;;16.70;93.80;;;;;;5115702;28;20047;-71
2023/05/19 10:24:21;;;;;;;9.63;2.10;;;16.80;95.40;;;;;;5115771;28;20130;-71
2023/05/19 10:26:59;;;;;;;6.63;1.80;;;16.80;94.30;;;;;;5134088;28;20505;-72
2023/05/19 10:29:29;;;;;;;7.22;1.73;;;16.70;94.40;;;;;;5099335;28;20695;-70
2023/05/19 10:31:59;;;;;;;8.70;2.05;;;16.60;93.80;;;;;;5134018;28;20039;-69
2023/05/19 10:34:53;;;;;;;8.73;1.50;;;16.80;94.90;;;;;;5116801;28;20055;-71
2023/05/19 10:37:45;;;;;;;7.32;1.60;;;17.00;94.60;;;;;;5099293;28;20064;-71
2023/05/19 10:40:28;;;;;;;5.97;1.90;;;17.10;93.40;;;;;;5099116;28;20041;-72
2023/05/19 10:43:30;;;;;;;4.82;1.80;;;17.00;91.60;;;;;;5116091;28;20394;-71
2023/05/19 10:45:56;;;;;;;7.35;1.60;;;17.00;93.00;;;;;;5133983;28;20121;-71
2023/05/19 10:48:23;;;;;;;10.47;1.83;;;16.90;93.40;;;;;;5135803;27;20377;-71
2023/05/19 10:50:52;;;;;;;8.23;1.90;;;16.90;92.00;;;;;;5119343;27;20342;-71
2023/05/19 10:53:21;;;;;;;10.50;1.88;;;17.10;93.10;;;;;;5137657;27;20468;-70
2023/05/19 10:55:51;;;;;;;8.77;1.58;;;17.20;93.70;;;;;;5138234;27;20047;-71
2023/05/19 10:58:35;;;;;;;10.20;1.75;;;17.40;93.10;;;;;;5138553;27;20043;-71
2023/05/19 11:01:01;;;;;;;6.82;1.88;;;17.50;93.60;;;;;;5137694;27;20053;-71
2023/05/19 11:03:27;;;;;;;11.02;1.45;;;17.60;92.60;;;;;;5119539;27;20470;-71
2023/05/19 11:06:26;;;;;;;7.00;1.63;;;17.70;92.70;;;;;;5103118;27;20043;-72
2023/05/19 11:08:55;;;;;;;7.30;2.05;;;17.90;92.80;;;;;;5119281;27;20480;-73
2023/05/19 11:11:21;;;;;;;5.72;1.67;;;18.00;92.40;;;;;;5119513;27;20096;-72
2023/05/19 11:13:50;;;;;;;8.82;2.03;;;18.20;92.40;;;;;;5102256;27;20480;-72
2023/05/19 11:16:26;;;;;;;8.45;1.60;;;18.30;92.20;;;;;;5137361;27;20412;-71
2023/05/19 11:18:58;;;;;;;5.82;1.40;;;18.30;92.00;;;;;;5119637;27;20122;-72
2023/05/19 11:21:39;;;;;;;6.88;1.58;;;18.20;92.10;;;;;;5119721;27;20096;-71
2023/05/19 11:24:08;;;;;;;5.15;1.20;;;18.20;92.10;;;;;;5118950;27;20047;-70
2023/05/19 11:26:43;;;;;;;6.10;1.40;;;18.10;90.70;;;;;;5137178;27;20085;-72
2023/05/19 11:29:10;;;;;;;5.43;1.50;;;17.90;90.00;;;;;;5101800;27;20048;-70
2023/05/19 11:31:37;;;;;;;7.53;1.25;;;18.20;91.40;;;;;;5118467;27;20526;-72
2023/05/19 11:34:06;;;;;;;6.95;1.33;;;18.30;90.90;;;;;;5118695;27;20043;-72
2023/05/19 11:36:32;;;;;;;7.18;1.67;;;18.30;90.30;;;;;;5137486;27;20042;-72
2023/05/19 11:39:00;;;;;;;7.65;1.50;;;18.30;90.70;;;;;;5118479;27;20039;-71
2023/05/19 11:41:27;;;;;;;7.55;1.30;;;18.40;90.70;;;;;;5136869;27;20499;-72
2023/05/19 11:43:52;;;;;;;;;;;18.50;90.00;;;;;;5102405;27;20416;-72
2023/05/19 11:46:18;;;;;;;7.03;1.13;;;18.80;88.80;;;;;;5136772;27;19919;-71
2023/05/19 11:48:47;;;;;;;6.17;1.20;;;19.00;90.10;;;;;;5101528;27;20046;-73
2023/05/19 11:51:13;;;;;;;5.88;1.08;;;19.10;89.20;;;;;;5136403;27;20129;-72
2023/05/19 11:53:39;;;;;;;3.43;1.07;;;19.30;90.30;;;;;;5084626;27;20103;-72
2023/05/19 11:56:05;;;;;;;4.93;1.10;;;19.40;87.30;;;;;;5101705;27;20153;-70
2023/05/19 11:58:30;;;;;;;7.43;1.13;;;19.40;86.20;;;;;;5136652;27;20047;-71
2023/05/19 12:00:56;;;;;;;11.20;1.50;;;18.60;82.90;;;;;;5101233;27;20050;-72
2023/05/19 12:03:26;;;;;;;7.50;1.37;;;19.00;86.10;;;;;;5118194;27;20039;-73
2023/05/19 12:05:53;;;;;;;5.68;1.30;;;19.40;87.80;;;;;;5118230;27;20089;-70
2023/05/19 12:08:18;;;;;;;7.63;1.17;;;19.40;85.60;;;;;;5136308;27;20051;-71
2023/05/19 12:10:50;;;;;;;7.47;1.20;;;19.60;86.20;;;;;;5118743;27;20538;-71
2023/05/19 12:13:16;;;;;;;6.53;1.00;;;19.70;82.90;;;;;;5117974;27;20051;-70
2023/05/19 12:15:42;;;;;;;6.30;1.17;;;19.60;84.10;;;;;;5117913;27;20046;-71
2023/05/19 12:18:08;;;;;;;7.23;1.53;;;19.70;85.20;;;;;;5118150;27;20078;-71
2023/05/19 12:20:34;;;;;;;6.50;1.35;;;19.90;85.60;;;;;;5117938;27;20087;-71
2023/05/19 12:23:01;;;;;;;7.10;1.33;;;20.10;84.60;;;;;;5101820;27;20127;-74
2023/05/19 12:25:30;;;;;;;4.50;1.30;;;20.20;83.70;;;;;;5136027;27;20055;-74
2023/05/19 12:28:03;;;;;;;8.55;1.30;;;20.30;83.70;;;;;;5118032;27;20054;-73
2023/05/19 12:30:30;;;;;;;5.82;1.02;;;20.30;83.60;;;;;;5118007;27;20043;-73
2023/05/19 12:32:57;;;;;;;5.53;1.35;;;20.50;83.70;;;;;;5118546;27;20055;-70
2023/05/19 12:35:31;;;;;;;5.25;1.17;;;20.50;80.40;;;;;;5136379;27;20039;-72
2023/05/19 12:38:05;;;;;;;6.50;1.10;;;20.50;80.40;;;;;;5118159;27;20483;-73
2023/05/19 12:40:33;;;;;;;7.32;1.25;;;19.90;76.20;;;;;;5117339;27;20039;-74
2023/05/19 12:42:58;;;;;;;6.63;1.30;;;19.90;78.90;;;;;;5135556;27;20053;-71
2023/05/19 12:45:26;;;;;;;5.57;1.10;;;20.00;80.10;;;;;;5117516;27;20484;-72
2023/05/19 12:47:52;;;;;;;4.38;1.10;;;19.90;79.30;;;;;;5116777;27;20050;-70
2023/05/19 12:50:18;;;;;;;3.80;1.20;;;19.50;75.80;;;;;;5117680;27;20063;-71
2023/05/19 12:52:46;;;;;;;7.10;1.38;;;19.60;78.00;;;;;;5117322;27;20138;-72